createdAt,value
2022-12-01T00:01:14.338Z,4.59
2022-12-01T00:03:40.996Z,4.59
2022-12-01T00:06:15.168Z,4.57
2022-12-01T00:09:02.514Z,4.55
2022-12-01T00:11:29.462Z,4.51
2022-12-01T00:13:56.055Z,4.50
2022-12-01T00:16:22.767Z,4.49
2022-12-01T00:18:50.726Z,4.47
2022-12-01T00:21:20.031Z,4.42
2022-12-01T00:23:49.549Z,4.38
2022-12-01T00:26:17.509Z,4.34
2022-12-01T00:28:47.794Z,4.26
2022-12-01T00:31:14.615Z,4.26
2022-12-01T00:33:41.371Z,4.24
2022-12-01T00:36:08.542Z,4.26
2022-12-01T00:38:35.674Z,4.26
2022-12-01T00:41:02.991Z,4.24
2022-12-01T00:43:29.770Z,4.21
2022-12-01T00:45:56.884Z,4.21
2022-12-01T00:48:24.141Z,4.19
2022-12-01T00:50:52.190Z,4.10
2022-12-01T00:53:19.322Z,4.15
2022-12-01T00:55:45.961Z,4.20
2022-12-01T00:58:12.638Z,4.26
2022-12-01T01:00:39.306Z,4.27
2022-12-01T01:03:07.154Z,4.25
2022-12-01T01:05:38.760Z,4.25
2022-12-01T01:08:14.283Z,4.24
2022-12-01T01:10:43.811Z,4.21
2022-12-01T01:13:11.831Z,4.22
2022-12-01T01:15:39.593Z,4.22
2022-12-01T01:18:06.752Z,4.23
2022-12-01T01:20:33.785Z,4.24
2022-12-01T01:23:00.632Z,4.20
2022-12-01T01:25:27.481Z,4.14
2022-12-01T01:27:54.313Z,4.14
2022-12-01T01:30:21.214Z,4.12
2022-12-01T01:32:47.996Z,4.04
2022-12-01T01:35:14.700Z,3.99
2022-12-01T01:37:41.287Z,3.96
2022-12-01T01:40:09.147Z,3.95
2022-12-01T01:42:35.778Z,3.92
2022-12-01T01:45:02.624Z,3.92
2022-12-01T01:47:35.699Z,3.91
2022-12-01T01:50:08.581Z,3.88
2022-12-01T01:52:41.025Z,3.88
2022-12-01T01:55:08.279Z,3.86
2022-12-01T01:57:35.869Z,3.88
2022-12-01T02:00:12.275Z,3.94
2022-12-01T02:02:45.653Z,3.95
2022-12-01T02:05:24.378Z,3.92
2022-12-01T02:07:53.101Z,3.87
2022-12-01T02:10:23.875Z,3.87
2022-12-01T02:13:05.764Z,3.87
2022-12-01T02:16:04.630Z,3.81
2022-12-01T02:19:05.328Z,3.78
2022-12-01T02:21:50.105Z,3.75
2022-12-01T02:24:25.952Z,3.68
2022-12-01T02:27:48.753Z,3.72
2022-12-01T02:30:42.278Z,3.66
2022-12-01T02:33:22.379Z,3.62
2022-12-01T02:36:00.792Z,3.64
2022-12-01T02:38:35.587Z,3.67
2022-12-01T02:41:13.055Z,3.72
2022-12-01T02:43:57.663Z,3.79
2022-12-01T02:46:33.578Z,3.84
2022-12-01T02:49:06.562Z,3.87
2022-12-01T02:51:35.492Z,3.92
2022-12-01T02:54:04.796Z,3.94
2022-12-01T02:56:31.634Z,3.94
2022-12-01T02:58:58.379Z,3.96
2022-12-01T03:01:50.032Z,4.05
2022-12-01T03:04:28.747Z,4.06
2022-12-01T03:06:55.361Z,4.07
2022-12-01T03:09:47.130Z,4.10
2022-12-01T03:12:30.842Z,4.04
2022-12-01T03:15:22.953Z,3.91
2022-12-01T03:17:59.013Z,3.86
2022-12-01T03:20:37.132Z,3.76
2022-12-01T03:23:17.462Z,3.72
2022-12-01T03:25:48.613Z,3.72
2022-12-01T03:28:21.537Z,3.73
2022-12-01T03:30:53.788Z,3.68
2022-12-01T03:33:28.320Z,3.66
2022-12-01T03:36:04.596Z,3.63
2022-12-01T03:38:35.606Z,3.59
2022-12-01T03:41:10.287Z,3.53
2022-12-01T03:43:42.511Z,3.48
2022-12-01T03:46:18.417Z,3.38
2022-12-01T03:48:46.037Z,3.35
2022-12-01T03:51:26.250Z,3.38
2022-12-01T03:54:15.737Z,3.35
2022-12-01T03:56:51.838Z,3.30
2022-12-01T03:59:21.490Z,3.29
2022-12-01T04:01:48.212Z,3.32
2022-12-01T04:04:15.280Z,3.36
2022-12-01T04:06:46.214Z,3.37
2022-12-01T04:09:12.988Z,3.37
2022-12-01T04:11:58.350Z,3.38
2022-12-01T04:14:25.192Z,3.37
2022-12-01T04:16:52.014Z,3.38
2022-12-01T04:19:18.623Z,3.39
2022-12-01T04:21:45.287Z,3.37
2022-12-01T04:24:12.744Z,3.37
2022-12-01T04:26:39.454Z,3.37
2022-12-01T04:29:08.831Z,3.39
2022-12-01T04:31:36.104Z,3.39
2022-12-01T04:34:02.982Z,3.45
2022-12-01T04:36:32.071Z,3.49
2022-12-01T04:38:58.813Z,3.53
2022-12-01T04:41:26.038Z,3.59
2022-12-01T04:43:54.131Z,3.64
2022-12-01T04:46:21.684Z,3.69
2022-12-01T04:48:48.691Z,3.71
2022-12-01T04:51:15.645Z,3.72
2022-12-01T04:53:42.624Z,3.75
2022-12-01T04:56:09.416Z,3.80
2022-12-01T04:58:37.275Z,3.85
2022-12-01T05:01:06.781Z,3.89
2022-12-01T05:03:41.151Z,3.92
2022-12-01T05:06:11.472Z,3.92
2022-12-01T05:08:38.438Z,3.94
2022-12-01T05:11:07.416Z,3.98
2022-12-01T05:13:42.854Z,4.02
2022-12-01T05:16:15.231Z,4.03
2022-12-01T05:18:42.619Z,4.01
2022-12-01T05:21:10.794Z,4.01
2022-12-01T05:23:38.651Z,4.01
2022-12-01T05:26:07.722Z,3.99
2022-12-01T05:28:34.782Z,3.99
2022-12-01T05:31:02.168Z,4.00
2022-12-01T05:33:29.570Z,4.00
2022-12-01T05:35:56.613Z,3.98
2022-12-01T05:38:23.243Z,3.97
2022-12-01T05:40:54.288Z,4.02
2022-12-01T05:43:28.265Z,4.05
2022-12-01T05:45:57.307Z,4.05
2022-12-01T05:48:25.057Z,4.07
2022-12-01T05:50:51.695Z,4.06
2022-12-01T05:53:19.093Z,4.05
2022-12-01T05:55:45.901Z,4.04
2022-12-01T05:58:12.630Z,4.06
2022-12-01T06:00:45.272Z,4.05
2022-12-01T06:03:14.196Z,4.05
2022-12-01T06:05:41.135Z,4.05
2022-12-01T06:08:07.938Z,4.04
2022-12-01T06:10:35.242Z,4.03
2022-12-01T06:13:02.097Z,4.03
2022-12-01T06:15:29.016Z,4.01
2022-12-01T06:17:59.185Z,4.03
2022-12-01T06:20:26.260Z,4.05
2022-12-01T06:22:53.180Z,4.03
2022-12-01T06:25:19.872Z,4.01
2022-12-01T06:27:46.717Z,4.00
2022-12-01T06:30:13.852Z,3.99
2022-12-01T06:32:40.492Z,3.97
2022-12-01T06:35:07.564Z,3.96
2022-12-01T06:37:34.397Z,3.97
2022-12-01T06:40:01.010Z,3.97
2022-12-01T06:42:31.855Z,3.96
2022-12-01T06:44:58.439Z,3.93
2022-12-01T06:47:25.125Z,3.94
2022-12-01T06:49:52.159Z,3.94
2022-12-01T06:52:18.918Z,3.94
2022-12-01T06:54:46.511Z,3.94
2022-12-01T06:57:13.347Z,3.94
2022-12-01T06:59:40.150Z,3.96
2022-12-01T07:02:10.232Z,3.99
2022-12-01T07:04:37.008Z,3.98
2022-12-01T07:07:07.641Z,4.00
2022-12-01T07:09:34.786Z,4.00
2022-12-01T07:12:01.666Z,4.01
2022-12-01T07:14:28.370Z,4.01
2022-12-01T07:16:55.064Z,4.06
2022-12-01T07:19:21.747Z,4.08
2022-12-01T07:21:48.446Z,4.12
2022-12-01T07:24:15.427Z,4.13
2022-12-01T07:26:43.009Z,4.13
2022-12-01T07:29:10.658Z,4.14
2022-12-01T07:31:38.569Z,4.12
2022-12-01T07:34:05.768Z,4.10
2022-12-01T07:36:33.132Z,4.11
2022-12-01T07:39:03.951Z,4.14
2022-12-01T07:41:30.667Z,4.20
2022-12-01T07:43:57.359Z,4.25
2022-12-01T07:46:26.127Z,4.30
2022-12-01T07:48:54.428Z,4.34
2022-12-01T07:51:22.672Z,4.39
2022-12-01T07:53:50.238Z,4.42
2022-12-01T07:56:17.831Z,4.47
2022-12-01T07:58:44.868Z,4.49
2022-12-01T08:01:14.946Z,4.50
2022-12-01T08:03:43.021Z,4.50
2022-12-01T08:06:10.988Z,4.51
2022-12-01T08:08:40.387Z,4.51
2022-12-01T08:11:13.682Z,4.50
2022-12-01T08:13:41.291Z,4.49
2022-12-01T08:16:10.040Z,4.50
2022-12-01T08:18:38.924Z,4.52
2022-12-01T08:21:07.307Z,4.54
2022-12-01T08:23:34.237Z,4.54
2022-12-01T08:26:06.716Z,4.53
2022-12-01T08:28:36.159Z,4.54
2022-12-01T08:31:20.012Z,4.57
2022-12-01T08:33:47.849Z,4.58
2022-12-01T08:36:15.034Z,4.57
2022-12-01T08:38:46.314Z,4.53
2022-12-01T08:41:14.017Z,4.53
2022-12-01T08:43:59.626Z,4.56
2022-12-01T08:46:30.751Z,4.53
2022-12-01T08:48:58.280Z,4.50
2022-12-01T08:51:26.009Z,4.52
2022-12-01T08:53:54.379Z,4.51
2022-12-01T08:56:23.517Z,4.54
2022-12-01T08:58:51.112Z,4.56
2022-12-01T09:01:19.464Z,4.61
2022-12-01T09:03:46.575Z,4.66
2022-12-01T09:06:16.925Z,4.73
2022-12-01T09:08:43.749Z,4.76
2022-12-01T09:11:14.318Z,4.76
2022-12-01T09:13:42.186Z,4.78
2022-12-01T09:16:16.944Z,4.81
2022-12-01T09:18:45.994Z,4.85
2022-12-01T09:21:19.388Z,4.90
2022-12-01T09:23:47.016Z,4.91
2022-12-01T09:26:17.870Z,4.94
2022-12-01T09:28:45.764Z,4.97
2022-12-01T09:31:14.465Z,4.98
2022-12-01T09:33:41.238Z,4.98
2022-12-01T09:36:09.448Z,5.01
2022-12-01T09:38:37.271Z,5.01
2022-12-01T09:41:08.011Z,5.05
2022-12-01T09:43:45.402Z,5.06
2022-12-01T09:46:28.060Z,5.07
2022-12-01T09:48:56.728Z,5.08
2022-12-01T09:51:25.996Z,5.10
2022-12-01T09:53:56.321Z,5.11
2022-12-01T09:56:24.288Z,5.12
2022-12-01T09:59:00.972Z,5.13
2022-12-01T10:01:35.930Z,5.09
2022-12-01T10:04:41.338Z,5.04
2022-12-01T10:07:31.368Z,4.99
2022-12-01T10:10:27.898Z,4.97
2022-12-01T10:12:54.801Z,4.95
2022-12-01T10:15:33.490Z,5.02
2022-12-01T10:18:18.695Z,5.06
2022-12-01T10:21:13.357Z,5.10
2022-12-01T10:24:08.695Z,5.16
2022-12-01T10:26:58.620Z,5.17
2022-12-01T10:29:54.084Z,5.18
2022-12-01T10:32:42.537Z,5.20
2022-12-01T10:35:14.887Z,5.22
2022-12-01T10:37:45.106Z,5.27
2022-12-01T10:40:14.193Z,5.33
2022-12-01T10:42:43.036Z,5.34
2022-12-01T10:45:14.663Z,5.37
2022-12-01T10:48:20.929Z,5.41
2022-12-01T10:50:54.065Z,5.42
2022-12-01T10:53:28.379Z,5.44
2022-12-01T10:56:17.928Z,5.48
2022-12-01T10:58:57.858Z,5.48
2022-12-01T11:01:27.336Z,5.45
2022-12-01T11:04:19.391Z,5.46
2022-12-01T11:06:49.923Z,5.45
2022-12-01T11:09:26.378Z,5.46
2022-12-01T11:11:56.594Z,5.45
2022-12-01T11:14:45.404Z,5.46
2022-12-01T11:17:54.559Z,5.48
2022-12-01T11:20:32.408Z,5.47
2022-12-01T11:23:17.987Z,5.50
2022-12-01T11:26:00.188Z,5.51
2022-12-01T11:28:27.659Z,5.52
2022-12-01T11:30:59.708Z,5.57
2022-12-01T11:33:28.322Z,5.58
2022-12-01T11:35:55.530Z,5.60
2022-12-01T11:38:30.643Z,5.62
2022-12-01T11:40:58.592Z,5.64
2022-12-01T11:43:29.994Z,5.65
2022-12-01T11:45:59.678Z,5.64
2022-12-01T11:48:29.277Z,5.64
2022-12-01T11:51:26.685Z,5.62
2022-12-01T11:54:24.865Z,5.56
2022-12-01T11:57:25.567Z,5.52
2022-12-01T11:59:39.774Z,5.54
2022-12-01T12:02:23.512Z,5.58
2022-12-01T12:05:14.843Z,5.60
2022-12-01T12:07:50.785Z,5.55
2022-12-01T12:10:43.669Z,5.60
2022-12-01T12:13:16.226Z,5.60
2022-12-01T12:16:04.156Z,5.66
2022-12-01T12:18:46.025Z,5.69
2022-12-01T12:21:15.495Z,5.73
2022-12-01T12:23:48.649Z,5.77
2022-12-01T12:26:30.007Z,5.80
2022-12-01T12:29:25.633Z,5.81
2022-12-01T12:31:55.072Z,5.80
2022-12-01T12:34:40.021Z,5.82
2022-12-01T12:37:19.748Z,5.81
2022-12-01T12:40:08.327Z,5.82
2022-12-01T12:43:27.640Z,5.83
2022-12-01T12:46:13.450Z,5.83
2022-12-01T12:49:19.661Z,5.86
2022-12-01T12:51:58.142Z,5.86
2022-12-01T12:55:00.892Z,5.87
2022-12-01T12:57:33.118Z,5.84
2022-12-01T13:00:04.593Z,5.87
2022-12-01T13:02:45.836Z,5.89
2022-12-01T13:05:43.316Z,5.91
2022-12-01T13:08:23.764Z,5.90
2022-12-01T13:10:50.275Z,5.89
2022-12-01T13:13:27.181Z,5.91
2022-12-01T13:15:56.213Z,5.91
2022-12-01T13:18:42.066Z,5.91
2022-12-01T13:21:15.803Z,5.91
2022-12-01T13:23:44.196Z,5.91
2022-12-01T13:26:13.830Z,5.89
2022-12-01T13:28:45.002Z,5.87
2022-12-01T13:31:14.188Z,5.88
2022-12-01T13:33:54.397Z,5.85
2022-12-01T13:36:45.605Z,5.82
2022-12-01T13:39:25.226Z,5.79
2022-12-01T13:42:19.279Z,5.76
2022-12-01T13:44:54.820Z,5.74
2022-12-01T13:47:30.562Z,5.72
2022-12-01T13:50:35.990Z,5.69
2022-12-01T13:53:23.463Z,5.62
2022-12-01T13:56:04.069Z,5.55
2022-12-01T13:58:33.409Z,5.51
2022-12-01T14:01:19.003Z,5.54
2022-12-01T14:03:52.014Z,5.53
2022-12-01T14:06:30.556Z,5.51
2022-12-01T14:09:01.905Z,5.52
2022-12-01T14:11:30.316Z,5.54
2022-12-01T14:14:11.150Z,5.54
2022-12-01T14:17:02.050Z,5.48
2022-12-01T14:19:51.572Z,5.43
2022-12-01T14:22:38.347Z,5.32
2022-12-01T14:25:20.443Z,5.24
2022-12-01T14:27:50.210Z,5.22
2022-12-01T14:30:38.630Z,5.23
2022-12-01T14:33:39.117Z,5.23
2022-12-01T14:36:18.791Z,5.23
2022-12-01T14:38:47.103Z,5.24
2022-12-01T14:41:25.186Z,5.29
2022-12-01T14:44:04.363Z,5.29
2022-12-01T14:46:40.156Z,5.33
2022-12-01T14:49:13.653Z,5.35
2022-12-01T14:51:45.459Z,5.35
2022-12-01T14:54:19.849Z,5.35
2022-12-01T14:56:50.637Z,5.34
2022-12-01T14:59:23.807Z,5.34
2022-12-01T15:01:54.382Z,5.33
2022-12-01T15:04:21.416Z,5.29
2022-12-01T15:06:55.554Z,5.24
2022-12-01T15:09:39.063Z,5.20
2022-12-01T15:12:06.745Z,5.15
2022-12-01T15:14:36.348Z,5.12
2022-12-01T15:17:05.684Z,5.09
2022-12-01T15:19:40.636Z,5.07
2022-12-01T15:22:16.162Z,5.04
2022-12-01T15:24:43.652Z,5.00
2022-12-01T15:27:27.818Z,4.97
2022-12-01T15:29:56.760Z,4.92
2022-12-01T15:32:24.345Z,4.87
2022-12-01T15:34:53.905Z,4.81
2022-12-01T15:37:23.047Z,4.77
2022-12-01T15:39:57.736Z,4.74
2022-12-01T15:42:38.784Z,4.68
2022-12-01T15:45:14.373Z,4.66
2022-12-01T15:47:42.822Z,4.63
2022-12-01T15:50:32.904Z,4.59
2022-12-01T15:53:03.941Z,4.54
2022-12-01T15:55:37.332Z,4.53
2022-12-01T15:58:09.351Z,4.52
2022-12-01T16:00:36.235Z,4.53
2022-12-01T16:03:03.212Z,4.52
2022-12-01T16:05:32.147Z,4.50
2022-12-01T16:08:23.233Z,4.51
2022-12-01T16:11:09.883Z,4.50
2022-12-01T16:13:41.610Z,4.50
2022-12-01T16:16:23.323Z,4.51
2022-12-01T16:18:55.758Z,4.46
2022-12-01T16:21:23.585Z,4.43
2022-12-01T16:24:04.927Z,4.42
2022-12-01T16:26:33.234Z,4.43
2022-12-01T16:28:59.962Z,4.46
2022-12-01T16:31:26.995Z,4.50
2022-12-01T16:34:06.543Z,4.52
2022-12-01T16:36:40.677Z,4.53
2022-12-01T16:39:07.503Z,4.54
2022-12-01T16:41:38.768Z,4.55
2022-12-01T16:44:27.419Z,4.55
2022-12-01T16:46:52.648Z,4.52
2022-12-01T16:49:19.188Z,4.53
2022-12-01T16:52:11.162Z,4.55
2022-12-01T16:54:32.556Z,4.54
2022-12-01T16:56:59.287Z,4.57
2022-12-01T16:59:25.844Z,4.56
2022-12-01T17:01:52.588Z,4.54
2022-12-01T17:04:19.364Z,4.54
2022-12-01T17:06:46.017Z,4.55
2022-12-01T17:09:12.891Z,4.56
2022-12-01T17:11:39.454Z,4.56
2022-12-01T17:14:06.110Z,4.53
2022-12-01T17:16:32.750Z,4.48
2022-12-01T17:19:00.449Z,4.46
2022-12-01T17:21:27.285Z,4.47
2022-12-01T17:23:53.976Z,4.48
2022-12-01T17:26:21.475Z,4.47
2022-12-01T17:28:48.381Z,4.47
2022-12-01T17:31:15.218Z,4.45
2022-12-01T17:33:42.057Z,4.41
2022-12-01T17:36:14.133Z,4.36
2022-12-01T17:38:44.340Z,4.36
2022-12-01T17:41:16.735Z,4.38
2022-12-01T17:43:43.858Z,4.39
2022-12-01T17:46:11.978Z,4.43
2022-12-01T17:48:42.546Z,4.49
2022-12-01T17:51:10.131Z,4.54
2022-12-01T17:53:38.829Z,4.58
2022-12-01T17:56:11.341Z,4.59
2022-12-01T17:58:38.498Z,4.60
2022-12-01T18:01:05.802Z,4.59
2022-12-01T18:03:32.365Z,4.59
2022-12-01T18:06:01.416Z,4.61
2022-12-01T18:08:30.736Z,4.63
2022-12-01T18:11:01.922Z,4.63
2022-12-01T18:13:28.865Z,4.65
2022-12-01T18:15:55.665Z,4.63
2022-12-01T18:18:22.313Z,4.60
2022-12-01T18:20:48.969Z,4.59
2022-12-01T18:23:15.565Z,4.60
2022-12-01T18:25:42.143Z,4.59
2022-12-01T18:28:10.501Z,4.56
2022-12-01T18:30:38.150Z,4.51
2022-12-01T18:33:08.098Z,4.49
2022-12-01T18:35:34.731Z,4.48
2022-12-01T18:38:02.398Z,4.47
2022-12-01T18:40:29.100Z,4.42
2022-12-01T18:42:55.767Z,4.42
2022-12-01T18:45:22.390Z,4.45
2022-12-01T18:47:49.037Z,4.49
2022-12-01T18:50:15.825Z,4.50
2022-12-01T18:52:42.438Z,4.51
2022-12-01T18:55:09.139Z,4.49
2022-12-01T18:57:35.864Z,4.50
2022-12-01T19:00:05.584Z,4.44
2022-12-01T19:02:32.300Z,4.42
2022-12-01T19:04:59.419Z,4.42
2022-12-01T19:07:29.937Z,4.42
2022-12-01T19:09:57.814Z,4.44
2022-12-01T19:12:24.561Z,4.45
2022-12-01T19:14:55.155Z,4.40
2022-12-01T19:17:22.189Z,4.35
2022-12-01T19:19:48.732Z,4.35
2022-12-01T19:22:17.507Z,4.38
2022-12-01T19:24:49.886Z,4.41
2022-12-01T19:27:17.909Z,4.41
2022-12-01T19:29:44.488Z,4.40
2022-12-01T19:32:12.851Z,4.40
2022-12-01T19:34:39.386Z,4.43
2022-12-01T19:37:06.022Z,4.41
2022-12-01T19:39:32.691Z,4.36
2022-12-01T19:41:59.570Z,4.27
2022-12-01T19:44:26.179Z,4.13
2022-12-01T19:46:53.215Z,4.03
2022-12-01T19:49:19.822Z,3.95
2022-12-01T19:51:46.654Z,3.93
2022-12-01T19:54:17.491Z,3.88
2022-12-01T19:56:44.779Z,3.72
2022-12-01T19:59:12.951Z,3.59
2022-12-01T20:01:40.826Z,3.46
2022-12-01T20:04:07.736Z,3.43
2022-12-01T20:06:35.903Z,3.40
2022-12-01T20:09:05.584Z,3.34
2022-12-01T20:11:34.529Z,3.29
2022-12-01T20:14:03.817Z,3.28
2022-12-01T20:16:31.560Z,3.30
2022-12-01T20:19:03.592Z,3.26
2022-12-01T20:21:35.801Z,3.23
2022-12-01T20:24:05.630Z,3.21
2022-12-01T20:26:39.333Z,3.20
2022-12-01T20:29:21.747Z,3.21
2022-12-01T20:31:50.939Z,3.20
2022-12-01T20:34:27.131Z,3.20
2022-12-01T20:36:54.240Z,3.21
2022-12-01T20:39:21.172Z,3.25
2022-12-01T20:41:48.780Z,3.29
2022-12-01T20:44:17.048Z,3.30
2022-12-01T20:46:47.110Z,3.28
2022-12-01T20:49:15.727Z,3.24
2022-12-01T20:51:42.735Z,3.20
2022-12-01T20:54:27.855Z,3.22
2022-12-01T20:56:55.266Z,3.21
2022-12-01T20:59:21.903Z,3.20
2022-12-01T21:01:48.552Z,3.19
2022-12-01T21:04:15.287Z,3.18
2022-12-01T21:06:42.056Z,3.20
2022-12-01T21:09:08.945Z,3.18
2022-12-01T21:12:06.135Z,3.19
2022-12-01T21:14:36.303Z,3.15
2022-12-01T21:17:18.915Z,3.11
2022-12-01T21:20:04.631Z,3.05
2022-12-01T21:22:31.434Z,3.01
2022-12-01T21:25:06.702Z,3.01
2022-12-01T21:27:35.673Z,3.01
2022-12-01T21:30:07.301Z,3.00
2022-12-01T21:32:34.220Z,2.99
2022-12-01T21:35:13.392Z,3.00
2022-12-01T21:37:40.029Z,3.01
2022-12-01T21:40:17.669Z,2.99
2022-12-01T21:42:44.420Z,2.99
2022-12-01T21:45:18.818Z,3.04
2022-12-01T21:47:45.524Z,3.05
2022-12-01T21:50:21.529Z,3.04
2022-12-01T21:52:49.649Z,3.02
2022-12-01T21:55:16.204Z,3.01
2022-12-01T21:57:46.022Z,3.01
2022-12-01T22:00:33.466Z,3.02
2022-12-01T22:03:09.115Z,3.00
2022-12-01T22:05:38.865Z,3.05
2022-12-01T22:08:11.371Z,3.11
2022-12-01T22:11:09.113Z,3.17
2022-12-01T22:13:39.350Z,3.15
2022-12-01T22:16:27.506Z,3.16
2022-12-01T22:19:00.347Z,3.09
2022-12-01T22:21:34.716Z,3.05
2022-12-01T22:24:18.303Z,3.03
2022-12-01T22:26:47.663Z,2.99
2022-12-01T22:29:22.758Z,3.02
2022-12-01T22:31:49.423Z,3.00
2022-12-01T22:34:19.303Z,2.99
2022-12-01T22:36:45.942Z,3.02
2022-12-01T22:39:33.456Z,3.03
2022-12-01T22:42:07.315Z,2.96
2022-12-01T22:44:34.008Z,2.88
2022-12-01T22:47:02.671Z,2.84
2022-12-01T22:49:29.795Z,2.84
2022-12-01T22:52:13.425Z,2.79
2022-12-01T22:54:46.109Z,2.77
2022-12-01T22:57:32.575Z,2.72
2022-12-01T23:00:21.407Z,2.65
2022-12-01T23:02:48.875Z,2.64
2022-12-01T23:05:22.326Z,2.63
2022-12-01T23:07:49.942Z,2.65
2022-12-01T23:10:20.281Z,2.67
2022-12-01T23:12:49.407Z,2.67
2022-12-01T23:15:31.709Z,2.64
2022-12-01T23:18:21.336Z,2.60
2022-12-01T23:20:51.122Z,2.58
2022-12-01T23:23:25.660Z,2.54
2022-12-01T23:25:52.464Z,2.48
2022-12-01T23:28:20.067Z,2.50
2022-12-01T23:30:50.507Z,2.54
2022-12-01T23:33:23.505Z,2.56
2022-12-01T23:35:57.803Z,2.53
2022-12-01T23:38:46.153Z,2.50
2022-12-01T23:41:36.776Z,2.50
2022-12-01T23:44:13.317Z,2.48
2022-12-01T23:46:40.697Z,2.49
2022-12-01T23:49:14.695Z,2.53
2022-12-01T23:51:47.837Z,2.56
2022-12-01T23:54:27.012Z,2.62
2022-12-01T23:57:10.563Z,2.62
2022-12-01T23:59:37.937Z,2.64
